Time;durP1;ratioP1;P1;durP2;ratioP2;P2;SDS_P1;SDS_P2;PMS_P1;PMS_P2;Temp;Humidity;BMP_temperature;BMP_pressure;BME280_temperature;BME280_humidity;BME280_pressure;Samples;Min_cycle;Max_cycle;Signal;HPM_P1;HPM_P2
2022/03/01 00:01:53;;;;;;;26.20;13.02;;;2.20;99.90;;;;;;4788721;30;20134;-77
2022/03/01 00:04:20;;;;;;;25.25;11.85;;;2.20;99.90;;;;;;4788201;30;20451;-80
2022/03/01 00:06:45;;;;;;;24.55;11.85;;;2.80;99.90;;;;;;4788261;30;20047;-79
2022/03/01 00:09:11;;;;;;;22.52;11.43;;;2.10;99.90;;;;;;4787987;29;20062;-79
2022/03/01 00:11:38;;;;;;;25.85;12.13;;;2.10;99.90;;;;;;4788103;30;20418;-78
2022/03/01 00:14:05;;;;;;;24.67;11.73;;;2.10;99.90;;;;;;4771914;30;20138;-80
2022/03/01 00:16:31;;;;;;;24.17;10.93;;;2.00;99.90;;;;;;4788377;30;20435;-79
2022/03/01 00:19:00;;;;;;;25.48;12.57;;;2.00;99.90;;;;;;4788196;30;20047;-79
2022/03/01 00:21:26;;;;;;;25.85;12.27;;;2.00;99.90;;;;;;4788193;30;20052;-79
2022/03/01 00:23:52;;;;;;;25.55;12.13;;;2.00;99.90;;;;;;4787891;30;20126;-78
2022/03/01 00:26:18;;;;;;;22.17;10.95;;;2.00;99.90;;;;;;4787896;30;20130;-78
2022/03/01 00:28:44;;;;;;;31.55;12.98;;;2.00;99.90;;;;;;4787888;30;20054;-78
2022/03/01 00:31:09;;;;;;;24.00;12.35;;;2.00;99.90;;;;;;4788142;30;20054;-79
2022/03/01 00:33:35;;;;;;;21.48;11.15;;;2.00;99.90;;;;;;4787849;30;20385;-80
2022/03/01 00:36:01;;;;;;;25.35;12.23;;;2.00;99.90;;;;;;4787968;30;20043;-79
2022/03/01 00:38:27;;;;;;;25.77;11.48;;;2.00;99.90;;;;;;4787706;30;20058;-79
2022/03/01 00:40:54;;;;;;;24.88;10.93;;;1.90;99.90;;;;;;4787831;30;20047;-79
2022/03/01 00:43:21;;;;;;;22.95;11.55;;;1.90;99.90;;;;;;4771601;30;20059;-78
2022/03/01 00:45:47;;;;;;;23.58;11.25;;;1.90;99.90;;;;;;4787643;30;20051;-80
2022/03/01 00:48:13;;;;;;;25.67;10.55;;;1.90;99.90;;;;;;4787691;30;20074;-80
2022/03/01 00:50:38;;;;;;;25.77;11.70;;;1.80;99.90;;;;;;4787748;30;20458;-79
2022/03/01 00:53:05;;;;;;;24.17;11.13;;;1.80;99.90;;;;;;4787814;30;20389;-79
2022/03/01 00:55:30;;;;;;;25.00;11.57;;;1.80;99.90;;;;;;4787492;29;20051;-79
2022/03/01 00:57:56;;;;;;;24.48;11.40;;;2.80;99.90;;;;;;4787486;30;20446;-78
2022/03/01 01:00:22;;;;;;;24.90;11.80;;;1.80;99.90;;;;;;4771654;30;20047;-79
2022/03/01 01:02:48;;;;;;;23.58;11.70;;;1.70;99.90;;;;;;4787490;30;20055;-79
2022/03/01 01:05:14;;;;;;;23.40;11.60;;;1.70;99.90;;;;;;4785936;30;20152;-79
2022/03/01 01:07:40;;;;;;;23.58;11.70;;;1.70;99.90;;;;;;4771440;30;20105;-79
2022/03/01 01:10:06;;;;;;;39.05;13.43;;;1.70;99.90;;;;;;4787448;30;20043;-78
2022/03/01 01:12:33;;;;;;;23.33;11.93;;;1.70;99.90;;;;;;4787385;30;20059;-78
2022/03/01 01:14:59;;;;;;;26.05;11.98;;;1.70;99.90;;;;;;4756424;30;20051;-79
2022/03/01 01:17:25;;;;;;;22.90;10.73;;;1.70;99.90;;;;;;4787712;30;20134;-80
2022/03/01 01:19:51;;;;;;;30.50;12.27;;;1.70;99.90;;;;;;4787610;30;20126;-80
2022/03/01 01:25:01;;;;;;;23.88;11.32;;;1.60;99.90;;;;;;4771118;30;20142;-80
2022/03/01 01:27:27;;;;;;;24.15;10.88;;;1.60;99.90;;;;;;4787217;30;20180;-78
2022/03/01 01:29:53;;;;;;;24.98;12.02;;;1.60;99.90;;;;;;4771414;30;20139;-79
2022/03/01 01:32:18;;;;;;;23.85;11.60;;;1.60;99.90;;;;;;4787489;30;20058;-80
2022/03/01 01:34:44;;;;;;;24.52;11.40;;;1.60;99.90;;;;;;4787360;30;20138;-78
2022/03/01 01:37:10;;;;;;;24.88;11.30;;;1.50;99.90;;;;;;4771219;30;20181;-80
2022/03/01 01:39:35;;;;;;;25.92;12.00;;;1.50;99.90;;;;;;4771160;30;20130;-79
2022/03/01 01:42:01;;;;;;;23.27;11.63;;;1.50;99.90;;;;;;4787085;30;20043;-77
2022/03/01 01:44:29;;;;;;;22.88;11.73;;;1.50;99.90;;;;;;4770899;30;20070;-78
2022/03/01 01:46:55;;;;;;;27.02;12.57;;;1.50;99.90;;;;;;4787520;30;20445;-79
2022/03/01 01:49:21;;;;;;;24.33;11.70;;;1.50;99.90;;;;;;4787170;30;20134;-80
2022/03/01 01:51:47;;;;;;;23.35;11.82;;;1.50;99.90;;;;;;4770868;30;20067;-79
2022/03/01 01:54:13;;;;;;;23.75;11.20;;;1.50;99.90;;;;;;4771013;30;20055;-79
2022/03/01 01:56:39;;;;;;;27.33;12.38;;;1.50;99.90;;;;;;4786581;29;20065;-79
2022/03/01 01:59:04;;;;;;;25.90;11.55;;;1.50;99.90;;;;;;4786691;30;20059;-79
2022/03/01 02:01:30;;;;;;;23.60;11.27;;;1.50;99.90;;;;;;4787294;30;20083;-80
2022/03/01 02:03:56;;;;;;;21.40;10.43;;;1.50;99.90;;;;;;4787343;30;20073;-80
2022/03/01 02:06:24;;;;;;;26.40;12.52;;;1.50;99.90;;;;;;4787060;30;20047;-76
2022/03/01 02:08:50;;;;;;;23.10;10.52;;;1.50;99.90;;;;;;4787125;30;20074;-79
2022/03/01 02:11:16;;;;;;;21.95;10.73;;;1.50;99.90;;;;;;4786660;29;20105;-78
2022/03/01 02:13:42;;;;;;;22.10;11.60;;;1.50;99.90;;;;;;4773714;30;20524;-76
2022/03/01 02:16:09;;;;;;;25.05;12.13;;;1.40;99.90;;;;;;4790386;30;20122;-78
2022/03/01 02:18:35;;;;;;;25.23;12.18;;;1.40;99.90;;;;;;4790352;30;20130;-78
2022/03/01 02:21:01;;;;;;;26.63;12.15;;;1.40;99.90;;;;;;4773945;30;20134;-79
2022/03/01 02:23:27;;;;;;;24.40;12.35;;;1.40;99.90;;;;;;4790225;30;20098;-78
2022/03/01 02:25:53;;;;;;;23.67;10.90;;;1.40;99.90;;;;;;4789752;30;20075;-78
2022/03/01 02:28:18;;;;;;;24.30;10.88;;;1.40;99.90;;;;;;4789798;30;20482;-78
2022/03/01 02:30:44;;;;;;;23.60;11.35;;;1.40;99.90;;;;;;4789820;30;20062;-76
2022/03/01 02:33:10;;;;;;;25.90;10.93;;;1.40;99.90;;;;;;4790096;30;20401;-78
2022/03/01 02:35:36;;;;;;;24.33;11.57;;;1.30;99.90;;;;;;4790072;30;20039;-78
2022/03/01 02:38:03;;;;;;;23.38;11.85;;;1.30;99.90;;;;;;4789994;30;20055;-77
2022/03/01 02:40:29;;;;;;;25.73;10.98;;;1.30;99.90;;;;;;4789622;30;20492;-77
2022/03/01 02:42:55;;;;;;;23.88;11.23;;;1.30;99.90;;;;;;4773669;30;20054;-78
2022/03/01 02:45:20;;;;;;;24.42;11.32;;;1.30;99.90;;;;;;4789538;30;20051;-78
2022/03/01 02:47:47;;;;;;;23.10;10.65;;;1.30;99.90;;;;;;4789814;30;20043;-78
2022/03/01 02:50:13;;;;;;;23.73;10.15;;;1.30;99.90;;;;;;4789636;30;20051;-78
2022/03/01 02:52:39;;;;;;;23.83;11.65;;;1.30;99.90;;;;;;4789566;30;20103;-78
2022/03/01 02:55:05;;;;;;;22.42;10.30;;;1.30;99.90;;;;;;4789376;30;20128;-80
2022/03/01 02:57:31;;;;;;;21.10;10.75;;;1.20;99.90;;;;;;4789046;29;20093;-78
2022/03/01 02:59:57;;;;;;;23.70;11.50;;;1.20;99.90;;;;;;4773420;30;20097;-78
2022/03/01 03:02:23;;;;;;;21.52;10.60;;;1.20;99.90;;;;;;4789536;30;20066;-78
2022/03/01 03:04:49;;;;;;;21.40;9.30;;;1.20;99.90;;;;;;4789439;30;20062;-76
2022/03/01 03:07:15;;;;;;;19.20;9.65;;;1.70;99.90;;;;;;4789354;30;20044;-76
2022/03/01 03:09:41;;;;;;;23.35;10.60;;;1.10;99.90;;;;;;4789399;30;20051;-77
2022/03/01 03:12:08;;;;;;;25.85;11.43;;;1.00;99.90;;;;;;4789024;29;20088;-78
2022/03/01 03:14:35;;;;;;;24.90;10.95;;;1.00;99.90;;;;;;4788961;30;20518;-77
2022/03/01 03:17:01;;;;;;;22.23;11.18;;;1.00;99.90;;;;;;4789519;30;20142;-78
2022/03/01 03:19:26;;;;;;;23.98;10.77;;;1.10;99.90;;;;;;4773294;30;20131;-77
2022/03/01 03:21:52;;;;;;;23.13;10.38;;;1.10;99.90;;;;;;4772637;30;20530;-78
2022/03/01 03:24:18;;;;;;;21.67;10.93;;;1.10;99.90;;;;;;4789030;29;20047;-78
2022/03/01 03:26:44;;;;;;;21.83;10.45;;;1.10;99.90;;;;;;4773059;30;20055;-77
2022/03/01 03:29:10;;;;;;;26.70;12.63;;;1.10;99.90;;;;;;4772655;30;20051;-78
2022/03/01 03:31:41;;;;;;;20.85;9.55;;;1.10;99.90;;;;;;4790267;30;20055;-77
2022/03/01 03:34:09;;;;;;;23.65;10.80;;;1.10;99.90;;;;;;4775880;30;20091;-78
2022/03/01 03:36:35;;;;;;;24.33;11.35;;;1.10;99.90;;;;;;4791546;30;20047;-75
2022/03/01 03:39:03;;;;;;;19.95;9.60;;;1.00;99.90;;;;;;4776450;30;20569;-77
2022/03/01 03:41:29;;;;;;;23.70;11.85;;;1.00;99.90;;;;;;4773864;30;20126;-77
2022/03/01 03:43:55;;;;;;;19.77;10.15;;;2.30;99.90;;;;;;4788732;30;20135;-78
2022/03/01 03:46:21;;;;;;;23.50;12.00;;;1.00;99.90;;;;;;4788920;30;20062;-76
2022/03/01 03:48:50;;;;;;;21.95;10.52;;;1.00;99.90;;;;;;4788676;30;20560;-78
2022/03/01 03:51:16;;;;;;;21.45;11.07;;;1.00;99.90;;;;;;4772514;30;20415;-77
2022/03/01 03:53:41;;;;;;;19.27;9.35;;;1.00;99.90;;;;;;4788682;30;20272;-77
2022/03/01 03:56:07;;;;;;;20.20;9.52;;;1.00;99.90;;;;;;4788413;30;20094;-78
2022/03/01 03:58:33;;;;;;;21.15;10.27;;;0.90;99.90;;;;;;4788061;30;20048;-77
2022/03/01 04:00:59;;;;;;;18.33;8.32;;;1.00;99.90;;;;;;4788411;30;20047;-76
2022/03/01 04:03:24;;;;;;;22.35;8.95;;;1.00;99.90;;;;;;4788304;30;20104;-78
2022/03/01 04:05:51;;;;;;;19.08;8.45;;;0.90;99.90;;;;;;4772428;30;20058;-77
2022/03/01 04:08:17;;;;;;;18.15;8.52;;;0.90;99.90;;;;;;4788206;30;20134;-78
2022/03/01 04:10:44;;;;;;;20.98;8.68;;;0.80;99.90;;;;;;4788303;30;20122;-77
2022/03/01 04:13:09;;;;;;;26.73;12.07;;;0.80;99.90;;;;;;4788098;30;20181;-77
2022/03/01 04:15:36;;;;;;;21.85;10.88;;;0.80;99.90;;;;;;4787839;30;20048;-78
2022/03/01 04:18:03;;;;;;;21.83;10.45;;;0.80;99.90;;;;;;4788206;30;20085;-76
2022/03/01 04:20:29;;;;;;;24.48;10.70;;;0.80;99.90;;;;;;4772184;30;20080;-78
2022/03/01 04:22:56;;;;;;;22.73;10.82;;;0.80;99.90;;;;;;4788285;30;20512;-77
2022/03/01 04:25:22;;;;;;;22.73;10.85;;;0.80;99.90;;;;;;4788196;30;20070;-78
2022/03/01 04:27:48;;;;;;;23.40;10.10;;;0.80;99.90;;;;;;4772062;30;20412;-74
2022/03/01 04:30:15;;;;;;;26.30;11.13;;;0.80;99.90;;;;;;4787677;30;20043;-77
2022/03/01 04:32:42;;;;;;;24.98;11.35;;;0.90;99.90;;;;;;4771464;30;20116;-77
2022/03/01 04:35:09;;;;;;;21.27;11.00;;;0.90;99.90;;;;;;4771694;30;20047;-77
2022/03/01 04:37:40;;;;;;;23.40;10.55;;;0.90;99.90;;;;;;4787789;30;20059;-78
2022/03/01 04:40:07;;;;;;;24.58;11.05;;;0.90;99.90;;;;;;4788024;30;20051;-78
2022/03/01 04:42:33;;;;;;;21.60;10.93;;;0.90;99.90;;;;;;4787642;30;20043;-78
2022/03/01 04:44:59;;;;;;;23.80;10.15;;;0.90;99.90;;;;;;4787578;29;20047;-77
2022/03/01 04:47:25;;;;;;;24.05;10.70;;;0.90;99.90;;;;;;4771574;30;20082;-78
2022/03/01 04:49:51;;;;;;;23.95;10.95;;;0.90;99.90;;;;;;4787802;30;20087;-78
2022/03/01 04:52:17;;;;;;;24.23;11.40;;;0.90;99.90;;;;;;4787648;30;20090;-78
2022/03/01 04:54:43;;;;;;;22.25;10.88;;;1.00;99.90;;;;;;4787571;30;20051;-78
2022/03/01 04:57:08;;;;;;;23.88;10.90;;;0.90;99.90;;;;;;4771551;30;20585;-78
2022/03/01 04:59:34;;;;;;;20.13;10.35;;;1.00;99.90;;;;;;4787170;30;20151;-78
2022/03/01 05:02:00;;;;;;;25.05;10.65;;;1.00;99.90;;;;;;4787470;30;20130;-77
2022/03/01 05:04:26;;;;;;;23.20;11.07;;;1.00;99.90;;;;;;4787780;30;20051;-78
2022/03/01 05:06:52;;;;;;;23.05;11.52;;;1.00;99.90;;;;;;4787534;30;20051;-78
2022/03/01 05:09:18;;;;;;;21.10;10.38;;;1.00;99.90;;;;;;4787617;30;20047;-78
2022/03/01 05:11:44;;;;;;;24.50;11.40;;;1.70;99.90;;;;;;4771361;30;20153;-78
2022/03/01 05:14:09;;;;;;;21.33;11.00;;;1.00;99.90;;;;;;4771307;30;20062;-77
2022/03/01 05:16:35;;;;;;;20.33;10.35;;;1.10;99.90;;;;;;4787096;29;20112;-78
2022/03/01 05:19:01;;;;;;;25.00;10.73;;;1.10;99.90;;;;;;4787407;30;20047;-78
2022/03/01 05:21:28;;;;;;;21.83;10.75;;;1.10;99.90;;;;;;4787639;30;20126;-76
2022/03/01 05:23:54;;;;;;;22.23;11.13;;;2.20;99.90;;;;;;4787370;30;20048;-78
2022/03/01 05:26:19;;;;;;;20.58;10.77;;;1.10;99.90;;;;;;4771233;30;20066;-79
2022/03/01 05:28:45;;;;;;;25.85;11.10;;;1.10;99.90;;;;;;4787274;30;20051;-78
2022/03/01 05:31:10;;;;;;;22.00;10.63;;;1.10;99.90;;;;;;4770936;30;20059;-79
2022/03/01 05:33:36;;;;;;;27.17;11.80;;;1.10;99.90;;;;;;4787153;30;20055;-78
2022/03/01 05:36:02;;;;;;;22.20;10.82;;;1.30;99.90;;;;;;4785715;30;20059;-78
2022/03/01 05:38:28;;;;;;;25.35;11.20;;;1.10;99.90;;;;;;4771467;30;20051;-78
2022/03/01 05:40:54;;;;;;;21.98;10.05;;;1.10;99.90;;;;;;4787316;30;20043;-79
2022/03/01 05:43:19;;;;;;;23.90;11.23;;;1.10;99.90;;;;;;4787127;30;20130;-78
2022/03/01 05:45:45;;;;;;;22.52;12.35;;;1.10;99.90;;;;;;4771063;29;20398;-77
2022/03/01 05:48:10;;;;;;;22.40;10.48;;;1.40;99.90;;;;;;4790255;30;20043;-78
2022/03/01 05:50:36;;;;;;;21.30;11.00;;;1.10;99.90;;;;;;4790668;30;20043;-78
2022/03/01 05:53:02;;;;;;;25.70;12.88;;;1.10;99.90;;;;;;4774467;30;20062;-78
2022/03/01 05:55:28;;;;;;;27.67;12.73;;;1.10;99.90;;;;;;4789478;30;20062;-78
2022/03/01 05:57:54;;;;;;;26.75;13.90;;;1.10;99.90;;;;;;4790344;30;20063;-78
2022/03/01 06:00:21;;;;;;;28.08;14.15;;;1.10;99.90;;;;;;4790444;30;20063;-77
2022/03/01 06:02:49;;;;;;;32.13;15.32;;;1.10;99.90;;;;;;4790089;30;20050;-77
2022/03/01 06:05:15;;;;;;;36.80;11.18;;;1.10;99.90;;;;;;4790420;30;20047;-79
2022/03/01 06:07:41;;;;;;;26.20;11.60;;;1.10;99.90;;;;;;4774157;30;20495;-77
2022/03/01 06:10:07;;;;;;;28.23;11.73;;;1.10;99.90;;;;;;4773936;30;20047;-78
2022/03/01 06:12:34;;;;;;;28.63;12.65;;;1.10;99.90;;;;;;4790251;30;20093;-76
2022/03/01 06:15:00;;;;;;;28.55;13.05;;;1.10;99.90;;;;;;4790351;30;20043;-79
2022/03/01 06:17:25;;;;;;;33.17;13.98;;;1.10;99.90;;;;;;4788418;30;20059;-79
2022/03/01 06:19:51;;;;;;;32.03;12.65;;;1.20;99.90;;;;;;4774402;30;20082;-79
2022/03/01 06:22:17;;;;;;;30.67;13.93;;;1.20;99.90;;;;;;4790120;30;20484;-79
2022/03/01 06:24:43;;;;;;;31.88;13.88;;;1.20;99.90;;;;;;4790037;30;20051;-79
2022/03/01 06:27:09;;;;;;;37.05;17.27;;;1.20;99.90;;;;;;4790067;30;20055;-79
2022/03/01 06:29:36;;;;;;;32.40;16.13;;;1.20;99.90;;;;;;4790065;30;20047;-79
2022/03/01 06:32:02;;;;;;;35.40;17.13;;;1.10;99.90;;;;;;4789584;30;20047;-80
2022/03/01 06:34:28;;;;;;;31.83;14.90;;;1.10;99.90;;;;;;4773899;30;20473;-79
2022/03/01 06:36:54;;;;;;;27.83;14.07;;;1.10;99.90;;;;;;4773826;30;20430;-79
2022/03/01 06:39:20;;;;;;;28.73;14.50;;;1.10;99.90;;;;;;4773909;30;20057;-78
2022/03/01 06:41:46;;;;;;;29.92;13.98;;;1.10;99.90;;;;;;4789726;30;20051;-79
2022/03/01 06:44:11;;;;;;;31.33;13.90;;;1.10;99.90;;;;;;4789726;30;20273;-78
2022/03/01 06:46:37;;;;;;;27.23;13.40;;;1.10;99.90;;;;;;4773599;30;20051;-79
2022/03/01 06:49:03;;;;;;;24.80;11.95;;;1.10;99.90;;;;;;4789493;30;20063;-79
2022/03/01 06:51:29;;;;;;;26.30;12.05;;;1.20;99.90;;;;;;4789849;30;20133;-80
2022/03/01 06:53:55;;;;;;;25.80;12.57;;;1.20;99.90;;;;;;4773111;30;20130;-79
2022/03/01 06:56:21;;;;;;;28.63;12.43;;;1.30;99.90;;;;;;4789350;29;20142;-77
2022/03/01 06:58:47;;;;;;;27.50;11.77;;;1.40;99.90;;;;;;4773025;30;20062;-80
2022/03/01 07:01:12;;;;;;;24.20;11.20;;;1.40;99.90;;;;;;4789401;30;20051;-79
2022/03/01 07:03:39;;;;;;;23.40;9.27;;;1.40;99.90;;;;;;4772741;30;20053;-77
2022/03/01 07:06:05;;;;;;;24.65;9.85;;;1.50;99.90;;;;;;4773354;30;20059;-80
2022/03/01 07:08:31;;;;;;;23.85;9.40;;;1.50;99.90;;;;;;4789697;30;20504;-79
2022/03/01 07:10:58;;;;;;;21.77;9.10;;;1.60;99.90;;;;;;4789320;30;20055;-79
2022/03/01 07:13:24;;;;;;;21.38;8.93;;;1.60;99.90;;;;;;4789372;30;20467;-79
2022/03/01 07:15:49;;;;;;;21.65;10.20;;;1.60;99.90;;;;;;4789243;30;20127;-79
2022/03/01 07:18:15;;;;;;;25.08;9.63;;;1.70;99.90;;;;;;4788642;29;20130;-78
2022/03/01 07:20:43;;;;;;;19.33;9.05;;;1.70;99.90;;;;;;4772863;30;20377;-79
2022/03/01 07:23:09;;;;;;;22.80;9.45;;;1.80;99.90;;;;;;4789212;30;20393;-77
2022/03/01 07:25:38;;;;;;;22.75;9.13;;;1.80;99.90;;;;;;4773147;30;20058;-79
2022/03/01 07:28:04;;;;;;;24.67;9.52;;;1.90;99.90;;;;;;4788965;30;20055;-77
2022/03/01 07:30:30;;;;;;;23.27;10.77;;;1.90;99.90;;;;;;4795600;29;20043;-75
2022/03/01 07:32:57;;;;;;;23.20;10.07;;;1.90;99.90;;;;;;4806269;29;20107;-75
2022/03/01 07:35:23;;;;;;;24.17;12.63;;;3.10;99.90;;;;;;4804011;29;20195;-82
2022/03/01 07:37:50;;;;;;;23.88;12.05;;;2.10;99.90;;;;;;4790522;29;20057;-80
2022/03/01 07:40:17;;;;;;;26.30;13.82;;;2.10;99.90;;;;;;4807007;29;20137;-78
2022/03/01 07:42:44;;;;;;;24.65;13.43;;;2.20;99.90;;;;;;4790833;29;20073;-78
2022/03/01 07:45:10;;;;;;;26.05;13.10;;;2.20;99.90;;;;;;4806836;29;20054;-80
2022/03/01 07:47:36;;;;;;;26.08;13.05;;;2.70;99.90;;;;;;4793326;29;20054;-81
2022/03/01 07:50:03;;;;;;;24.95;12.90;;;3.10;99.90;;;;;;4804204;29;20492;-84
2022/03/01 07:52:29;;;;;;;24.90;12.38;;;2.50;99.90;;;;;;4804948;29;20076;-81
2022/03/01 07:54:54;;;;;;;28.77;12.38;;;2.50;99.90;;;;;;4805151;29;20050;-79
2022/03/01 07:57:20;;;;;;;26.73;13.52;;;2.60;99.90;;;;;;4804195;29;20397;-78
2022/03/01 07:59:46;;;;;;;26.27;12.32;;;2.70;99.90;;;;;;4788604;29;20127;-78
2022/03/01 08:02:11;;;;;;;22.45;12.10;;;3.50;99.90;;;;;;4804644;29;20054;-76
2022/03/01 08:04:38;;;;;;;26.13;13.02;;;2.80;99.90;;;;;;4787967;29;20055;-77
2022/03/01 08:07:04;;;;;;;25.92;12.90;;;2.90;99.90;;;;;;4788298;29;20086;-78
2022/03/01 08:09:30;;;;;;;27.45;13.20;;;3.00;99.90;;;;;;4802713;29;20099;-78
2022/03/01 08:11:55;;;;;;;27.67;13.95;;;3.80;99.90;;;;;;4804689;29;20057;-77
2022/03/01 08:14:21;;;;;;;22.05;11.13;;;3.20;99.90;;;;;;4804321;29;20046;-76
2022/03/01 08:16:47;;;;;;;24.80;12.77;;;3.30;99.90;;;;;;4788679;29;20457;-75
2022/03/01 08:19:12;;;;;;;27.73;12.82;;;3.90;99.90;;;;;;4804136;29;20047;-77
2022/03/01 08:21:38;;;;;;;21.20;10.77;;;3.50;99.90;;;;;;4788131;29;20543;-77
2022/03/01 08:24:04;;;;;;;25.05;12.13;;;3.50;99.90;;;;;;4804504;29;20212;-77
2022/03/01 08:26:30;;;;;;;22.42;11.43;;;3.60;99.90;;;;;;4788057;29;20100;-78
2022/03/01 08:28:55;;;;;;;23.35;12.32;;;3.70;99.90;;;;;;4787797;29;20428;-76
2022/03/01 08:31:21;;;;;;;22.50;12.00;;;3.70;99.90;;;;;;4787604;29;20054;-77
2022/03/01 08:33:47;;;;;;;24.52;11.95;;;4.40;99.90;;;;;;4804003;29;20136;-77
2022/03/01 08:36:13;;;;;;;26.15;12.70;;;4.30;99.90;;;;;;4788000;29;20155;-75
2022/03/01 08:38:40;;;;;;;22.63;12.30;;;3.80;99.90;;;;;;4786796;29;20066;-77
2022/03/01 08:41:06;;;;;;;26.05;12.23;;;3.90;99.90;;;;;;4801106;29;20096;-81
2022/03/01 08:43:32;;;;;;;21.60;10.52;;;3.90;99.90;;;;;;4792367;29;20054;-77
2022/03/01 08:45:57;;;;;;;24.33;11.95;;;3.90;99.90;;;;;;4801899;29;20079;-77
2022/03/01 08:48:25;;;;;;;21.13;11.48;;;4.50;99.90;;;;;;4805321;29;20042;-76
2022/03/01 08:50:51;;;;;;;19.73;9.90;;;3.90;99.90;;;;;;4802567;29;20062;-77
2022/03/01 08:53:19;;;;;;;22.83;8.88;;;4.00;99.90;;;;;;4816227;29;20058;-83
2022/03/01 08:55:45;;;;;;;20.25;8.77;;;4.60;99.90;;;;;;4802359;29;20080;-79
2022/03/01 08:58:11;;;;;;;20.58;8.68;;;5.10;99.90;;;;;;4819663;29;20127;-81
2022/03/01 09:00:36;;;;;;;21.45;8.75;;;4.20;99.90;;;;;;4818085;29;20488;-76
2022/03/01 09:03:02;;;;;;;20.13;8.95;;;4.20;99.90;;;;;;4810017;29;20172;-79
2022/03/01 09:05:28;;;;;;;20.60;8.98;;;4.30;99.90;;;;;;4808320;29;20416;-80
2022/03/01 09:07:54;;;;;;;22.60;9.27;;;4.30;99.90;;;;;;4790400;29;20078;-77
2022/03/01 09:10:21;;;;;;;22.75;9.20;;;4.30;99.90;;;;;;4809154;29;20530;-77
2022/03/01 09:12:57;;;;;;;22.98;9.85;;;4.40;99.90;;;;;;4819313;29;20115;-83
2022/03/01 09:15:26;;;;;;;19.45;8.02;;;4.50;99.90;;;;;;4818191;29;20049;-81
2022/03/01 09:17:52;;;;;;;20.05;8.10;;;4.50;99.90;;;;;;4788252;29;20057;-79
2022/03/01 09:20:18;;;;;;;22.45;9.13;;;4.60;99.90;;;;;;4819993;29;20139;-79
2022/03/01 09:22:44;;;;;;;19.38;8.25;;;4.70;99.90;;;;;;4817517;29;20558;-79
2022/03/01 09:25:10;;;;;;;24.27;8.57;;;4.90;99.90;;;;;;4810235;29;20042;-79
2022/03/01 09:27:36;;;;;;;18.92;8.13;;;5.90;99.90;;;;;;4791578;29;20055;-79
2022/03/01 09:30:03;;;;;;;20.25;7.60;;;5.20;99.90;;;;;;4796630;29;20495;-77
2022/03/01 09:32:28;;;;;;;17.67;7.50;;;5.40;99.90;;;;;;4822296;29;20595;-79
2022/03/01 09:34:55;;;;;;;18.95;7.45;;;6.10;99.90;;;;;;4821617;29;20089;-77
2022/03/01 09:37:22;;;;;;;19.63;8.43;;;6.30;99.90;;;;;;4822318;29;20100;-74
2022/03/01 09:39:47;;;;;;;22.20;7.80;;;5.80;99.90;;;;;;4821796;29;20066;-76
2022/03/01 09:42:14;;;;;;;20.58;7.35;;;5.80;99.90;;;;;;4806476;29;20042;-78
2022/03/01 09:44:41;;;;;;;21.27;8.30;;;5.80;99.90;;;;;;4820623;29;20133;-76
2022/03/01 09:47:07;;;;;;;17.95;7.35;;;5.80;99.90;;;;;;4823251;29;20050;-74
2022/03/01 09:49:32;;;;;;;17.35;7.32;;;5.90;99.90;;;;;;4805963;29;20142;-77
2022/03/01 09:51:58;;;;;;;19.80;7.63;;;6.00;99.90;;;;;;4823127;29;20058;-77
2022/03/01 09:54:24;;;;;;;18.10;8.13;;;6.10;99.90;;;;;;4819840;29;20054;-78
2022/03/01 09:56:50;;;;;;;17.58;7.53;;;6.20;99.90;;;;;;4801809;29;20067;-76
2022/03/01 09:59:15;;;;;;;19.20;7.45;;;6.30;99.90;;;;;;4800890;29;20499;-76
2022/03/01 10:01:51;;;;;;;16.17;6.70;;;6.30;99.90;;;;;;4809230;29;20153;-75
2022/03/01 10:04:17;;;;;;;17.38;7.03;;;6.40;99.90;;;;;;4798543;29;20051;-76
2022/03/01 10:06:48;;;;;;;15.50;6.72;;;6.40;99.90;;;;;;4822726;29;20054;-79
2022/03/01 10:09:22;;;;;;;14.25;6.30;;;6.60;99.90;;;;;;4785785;29;20086;-77
2022/03/01 10:11:48;;;;;;;17.13;6.40;;;6.40;99.90;;;;;;4805755;29;20081;-76
2022/03/01 10:14:15;;;;;;;16.50;6.93;;;6.50;99.90;;;;;;4807905;29;20047;-75
2022/03/01 10:16:44;;;;;;;17.65;6.43;;;7.00;99.90;;;;;;4793222;29;20060;-75
2022/03/01 10:19:21;;;;;;;14.43;5.35;;;6.70;99.90;;;;;;4807555;29;20094;-78
2022/03/01 10:21:58;;;;;;;17.48;7.05;;;6.90;99.90;;;;;;4815596;29;20133;-76
2022/03/01 10:24:24;;;;;;;16.92;7.13;;;7.00;99.90;;;;;;4803643;29;20162;-75
2022/03/01 10:26:59;;;;;;;19.52;7.82;;;7.10;99.90;;;;;;4806301;29;20137;-76
2022/03/01 10:29:29;;;;;;;19.35;7.50;;;7.00;99.90;;;;;;4797580;29;20050;-78
2022/03/01 10:31:59;;;;;;;19.05;7.32;;;7.60;99.90;;;;;;4818126;29;20088;-77
2022/03/01 10:34:26;;;;;;;17.65;8.65;;;6.90;99.90;;;;;;4806468;29;20065;-77
2022/03/01 10:36:52;;;;;;;16.23;6.85;;;6.90;99.90;;;;;;4807438;29;20609;-79
2022/03/01 10:39:31;;;;;;;19.13;7.88;;;6.80;99.90;;;;;;4811465;29;20047;-76
2022/03/01 10:41:57;;;;;;;15.77;6.70;;;7.10;99.90;;;;;;4808875;29;20096;-75
2022/03/01 10:44:29;;;;;;;17.48;8.13;;;6.80;99.90;;;;;;4791418;29;20058;-77
2022/03/01 10:46:58;;;;;;;16.75;7.40;;;7.00;99.90;;;;;;4803338;29;20066;-77
2022/03/01 10:49:29;;;;;;;17.40;8.07;;;6.90;99.90;;;;;;4806312;29;20050;-78
2022/03/01 10:52:01;;;;;;;17.15;7.28;;;7.00;99.90;;;;;;4813792;29;20502;-78
2022/03/01 10:54:30;;;;;;;;;;;7.10;99.90;;;;;;4819706;29;20054;-77
2022/03/01 10:56:57;;;;;;;19.00;7.60;;;7.20;99.90;;;;;;4822128;29;20296;-76
2022/03/01 10:59:24;;;;;;;18.38;7.32;;;7.00;99.90;;;;;;4802185;29;20046;-77
2022/03/01 11:01:51;;;;;;;16.30;6.70;;;7.40;99.90;;;;;;4820870;29;20039;-73
2022/03/01 11:04:17;;;;;;;18.05;6.47;;;7.40;99.90;;;;;;4820193;29;20488;-76
2022/03/01 11:06:46;;;;;;;17.27;6.93;;;7.60;99.90;;;;;;4884434;24;20066;-74
2022/03/01 11:09:12;;;;;;;20.23;7.53;;;8.70;99.90;;;;;;4787170;29;20506;-75
2022/03/01 11:11:39;;;;;;;16.33;6.72;;;7.80;99.90;;;;;;4789544;29;20500;-77
2022/03/01 11:14:05;;;;;;;16.20;6.90;;;7.90;99.90;;;;;;4789385;29;20110;-77
2022/03/01 11:16:53;;;;;;;19.48;8.00;;;8.00;99.90;;;;;;4793206;29;20093;-79
2022/03/01 11:21:50;;;;;;;19.70;10.35;;;8.40;99.90;;;;;;4837253;29;20050;-79
2022/03/01 11:24:19;;;;;;;21.08;11.05;;;8.50;99.90;;;;;;4837661;29;20506;-74
2022/03/01 11:26:46;;;;;;;19.85;10.18;;;8.50;99.90;;;;;;4822665;29;20144;-77
2022/03/01 11:29:15;;;;;;;19.70;9.20;;;8.60;99.90;;;;;;4822652;29;20061;-76
2022/03/01 11:31:42;;;;;;;20.75;8.77;;;8.50;99.90;;;;;;4834902;29;20050;-79
2022/03/01 11:34:14;;;;;;;17.63;9.25;;;8.60;99.90;;;;;;4837201;29;20050;-80
2022/03/01 11:36:48;;;;;;;17.55;8.02;;;8.40;99.90;;;;;;4835088;29;20735;-78
2022/03/01 11:39:16;;;;;;;19.15;9.07;;;8.60;99.90;;;;;;4830970;29;20154;-77
2022/03/01 11:41:45;;;;;;;15.45;8.15;;;8.80;99.90;;;;;;4833651;29;20045;-77
2022/03/01 11:44:12;;;;;;;18.15;8.88;;;8.90;99.90;;;;;;4836104;29;20042;-76
2022/03/01 11:46:40;;;;;;;19.45;9.52;;;8.90;99.90;;;;;;4822093;29;20056;-74
2022/03/01 11:49:06;;;;;;;17.08;7.80;;;8.90;99.90;;;;;;4839289;29;20081;-74
2022/03/01 11:51:34;;;;;;;21.83;8.18;;;9.10;99.90;;;;;;4839402;29;20102;-73
2022/03/01 11:54:06;;;;;;;17.98;8.52;;;8.90;99.90;;;;;;4838928;29;20045;-75
2022/03/01 11:56:34;;;;;;;20.55;9.73;;;9.00;99.90;;;;;;4838033;29;20119;-78
2022/03/01 11:59:12;;;;;;;19.02;8.20;;;8.90;99.90;;;;;;4839405;29;20764;-76
2022/03/01 12:01:38;;;;;;;15.85;6.95;;;9.10;99.90;;;;;;4838020;29;20058;-76
2022/03/01 12:04:06;;;;;;;17.92;8.05;;;9.50;99.90;;;;;;4822436;29;20419;-76
2022/03/01 12:06:36;;;;;;;19.65;7.90;;;9.00;99.90;;;;;;4834895;29;20068;-76
2022/03/01 12:09:10;;;;;;;16.40;7.57;;;9.00;99.90;;;;;;4838697;29;20054;-77
2022/03/01 12:11:41;;;;;;;17.02;7.15;;;9.00;99.90;;;;;;4838267;29;20053;-74
2022/03/01 12:14:09;;;;;;;19.55;8.30;;;9.00;99.90;;;;;;4837853;29;20403;-77
2022/03/01 12:16:37;;;;;;;18.55;6.97;;;9.30;99.90;;;;;;4821173;29;20045;-76
2022/03/01 12:19:17;;;;;;;16.75;7.30;;;9.20;99.90;;;;;;4821580;29;20050;-83
2022/03/01 12:21:48;;;;;;;20.50;8.50;;;9.10;99.90;;;;;;4821526;29;20062;-78
2022/03/01 12:24:14;;;;;;;17.00;7.53;;;9.20;99.90;;;;;;4837264;29;20061;-84
2022/03/01 12:26:46;;;;;;;19.05;8.60;;;9.20;99.90;;;;;;4806897;29;20145;-80
2022/03/01 12:29:14;;;;;;;20.58;8.75;;;9.20;99.90;;;;;;4838388;29;20077;-81
2022/03/01 12:31:40;;;;;;;16.85;8.27;;;9.30;99.90;;;;;;4816744;29;20046;-82
2022/03/01 12:34:08;;;;;;;18.67;8.07;;;9.30;99.90;;;;;;4811260;29;20060;-80
2022/03/01 12:36:41;;;;;;;18.27;8.32;;;9.60;99.90;;;;;;4832360;29;20042;-86
2022/03/01 12:39:13;;;;;;;20.02;8.85;;;9.40;99.90;;;;;;4829592;29;20039;-80
2022/03/01 12:41:43;;;;;;;15.52;6.65;;;9.40;99.90;;;;;;4835144;29;20050;-80
2022/03/01 12:44:12;;;;;;;21.33;8.95;;;9.40;99.90;;;;;;4820653;29;20089;-76